aviador You're here:

KLSE Decoded Metar

LA CROSSE in WI, USA
Report Time2018-06-23 05:53:00
UTC Time2018-06-23 06:15:29
Flight Rules vfr VFR
WindCalm
Visibility9999 m
Phenomena:N/A
Clouds:N/A
Expected CloudBase > 400 ft AGL from Temp-Dew spread
CeilingNone
Temp18°C (ISA +4)
Dew Point17°C (94% RH)
QNH1008 hPa
Density Alt1,588 ft
Elevation653 ft
Report Wrong Elevation
Raw Report
KLSE 230553Z AUTO 00000KT 10SM CLR 18/17 A2978 RMK AO2 SLP076
T01830167 10278 20183 402830167 53001 $=

Extra information for KLSE:More info

Metar Taf Metar & Taf Last 4 Metars F.Rules Stats Wind Profile Meteogram Temp Stats Airport Information Weather charts Add Link Nearby VenuesMetar ALERT Operation Metar Decoded Social comments

AIRNAV info for KLSE